sensor_id;sensor_type;location;lat;lon;timestamp;pressure;altitude;pressure_sealevel;temperature;humidity
49122;BME280;35529;44.342;25.944;2023-02-12T00:02:18;101614.75;;;-1.15;100.00
49122;BME280;35529;44.342;25.944;2023-02-12T00:04:46;101614.66;;;-1.14;100.00
49122;BME280;35529;44.342;25.944;2023-02-12T00:07:18;101609.72;;;-1.19;100.00
49122;BME280;35529;44.342;25.944;2023-02-12T00:09:44;101633.19;;;-1.19;100.00
49122;BME280;35529;44.342;25.944;2023-02-12T00:12:16;101632.91;;;-1.14;100.00
49122;BME280;35529;44.342;25.944;2023-02-12T00:14:42;101641.19;;;-1.07;100.00
49122;BME280;35529;44.342;25.944;2023-02-12T00:17:17;101640.75;;;-0.99;100.00
49122;BME280;35529;44.342;25.944;2023-02-12T00:19:48;101625.28;;;-1.03;100.00
49122;BME280;35529;44.342;25.944;2023-02-12T00:22:16;101635.44;;;-0.98;100.00
49122;BME280;35529;44.342;25.944;2023-02-12T00:24:45;101621.38;;;-0.95;100.00
49122;BME280;35529;44.342;25.944;2023-02-12T00:27:11;101618.22;;;-0.86;100.00
49122;BME280;35529;44.342;25.944;2023-02-12T00:29:37;101617.09;;;-0.82;100.00
49122;BME280;35529;44.342;25.944;2023-02-12T00:32:03;101607.31;;;-0.78;100.00
49122;BME280;35529;44.342;25.944;2023-02-12T00:34:29;101611.59;;;-0.77;100.00
49122;BME280;35529;44.342;25.944;2023-02-12T00:36:56;101602.34;;;-0.69;100.00
49122;BME280;35529;44.342;25.944;2023-02-12T00:39:22;101599.19;;;-0.59;100.00
49122;BME280;35529;44.342;25.944;2023-02-12T00:41:48;101599.25;;;-0.46;100.00
49122;BME280;35529;44.342;25.944;2023-02-12T00:44:14;101612.84;;;-0.41;100.00
49122;BME280;35529;44.342;25.944;2023-02-12T00:46:40;101604.81;;;-0.38;100.00
49122;BME280;35529;44.342;25.944;2023-02-12T00:49:06;101603.50;;;-0.31;100.00
49122;BME280;35529;44.342;25.944;2023-02-12T00:51:32;101605.72;;;-0.25;100.00
49122;BME280;35529;44.342;25.944;2023-02-12T00:53:58;101608.03;;;-0.20;100.00
49122;BME280;35529;44.342;25.944;2023-02-12T00:56:24;101614.31;;;-0.23;100.00
49122;BME280;35529;44.342;25.944;2023-02-12T00:58:50;101602.19;;;-0.24;100.00
49122;BME280;35529;44.342;25.944;2023-02-12T01:01:17;101604.03;;;-0.26;100.00
49122;BME280;35529;44.342;25.944;2023-02-12T01:03:43;101605.16;;;-0.30;100.00
49122;BME280;35529;44.342;25.944;2023-02-12T01:06:09;101595.88;;;-0.34;100.00
49122;BME280;35529;44.342;25.944;2023-02-12T01:08:35;101591.03;;;-0.40;100.00
49122;BME280;35529;44.342;25.944;2023-02-12T01:11:02;101585.19;;;-0.44;100.00
49122;BME280;35529;44.342;25.944;2023-02-12T01:13:29;101578.88;;;-0.54;100.00
49122;BME280;35529;44.342;25.944;2023-02-12T01:16:02;101573.66;;;-0.54;100.00
49122;BME280;35529;44.342;25.944;2023-02-12T01:18:29;101571.25;;;-0.57;100.00
49122;BME280;35529;44.342;25.944;2023-02-12T01:20:55;101570.69;;;-0.62;100.00
49122;BME280;35529;44.342;25.944;2023-02-12T01:23:23;101561.59;;;-0.70;100.00
49122;BME280;35529;44.342;25.944;2023-02-12T01:25:55;101555.31;;;-0.67;100.00
49122;BME280;35529;44.342;25.944;2023-02-12T01:28:23;101550.66;;;-0.62;100.00
49122;BME280;35529;44.342;25.944;2023-02-12T01:30:51;101544.22;;;-0.56;100.00
49122;BME280;35529;44.342;25.944;2023-02-12T01:33:17;101543.44;;;-0.44;100.00
49122;BME280;35529;44.342;25.944;2023-02-12T01:35:45;101529.47;;;-0.43;100.00
49122;BME280;35529;44.342;25.944;2023-02-12T01:38:16;101534.69;;;-0.43;100.00
49122;BME280;35529;44.342;25.944;2023-02-12T01:40:44;101537.91;;;-0.39;100.00
49122;BME280;35529;44.342;25.944;2023-02-12T01:43:13;101543.91;;;-0.24;100.00
49122;BME280;35529;44.342;25.944;2023-02-12T01:45:43;101548.50;;;-0.28;100.00
49122;BME280;35529;44.342;25.944;2023-02-12T01:48:10;101542.09;;;-0.37;100.00
49122;BME280;35529;44.342;25.944;2023-02-12T01:50:37;101547.19;;;-0.48;100.00
49122;BME280;35529;44.342;25.944;2023-02-12T01:53:03;101563.00;;;-0.51;100.00
49122;BME280;35529;44.342;25.944;2023-02-12T01:55:29;101561.63;;;-0.57;100.00
49122;BME280;35529;44.342;25.944;2023-02-12T01:57:56;101577.59;;;-0.61;100.00
49122;BME280;35529;44.342;25.944;2023-02-12T02:00:24;101572.16;;;-0.58;100.00
49122;BME280;35529;44.342;25.944;2023-02-12T02:02:51;101568.44;;;-0.54;100.00
49122;BME280;35529;44.342;25.944;2023-02-12T02:08:05;101584.78;;;-0.38;100.00
49122;BME280;35529;44.342;25.944;2023-02-12T02:10:31;101609.78;;;-0.48;100.00
49122;BME280;35529;44.342;25.944;2023-02-12T02:12:57;101597.94;;;-0.54;100.00
49122;BME280;35529;44.342;25.944;2023-02-12T02:15:43;101587.50;;;-0.54;100.00
49122;BME280;35529;44.342;25.944;2023-02-12T02:23:51;101610.06;;;-0.53;100.00
49122;BME280;35529;44.342;25.944;2023-02-12T02:26:26;101597.88;;;-0.52;100.00
49122;BME280;35529;44.342;25.944;2023-02-12T02:34:16;101619.47;;;-0.50;100.00
49122;BME280;35529;44.342;25.944;2023-02-12T02:36:45;101625.34;;;-0.46;100.00
49122;BME280;35529;44.342;25.944;2023-02-12T02:44:09;101625.59;;;-0.37;100.00
49122;BME280;35529;44.342;25.944;2023-02-12T02:46:44;101612.19;;;-0.45;100.00
49122;BME280;35529;44.342;25.944;2023-02-12T02:49:12;101625.56;;;-0.49;100.00
49122;BME280;35529;44.342;25.944;2023-02-12T02:51:42;101622.53;;;-0.43;100.00
49122;BME280;35529;44.342;25.944;2023-02-12T02:54:12;101625.81;;;-0.40;100.00
49122;BME280;35529;44.342;25.944;2023-02-12T02:56:40;101619.94;;;-0.43;100.00
49122;BME280;35529;44.342;25.944;2023-02-12T02:59:11;101625.63;;;-0.51;100.00
49122;BME280;35529;44.342;25.944;2023-02-12T03:01:43;101621.53;;;-0.55;100.00
49122;BME280;35529;44.342;25.944;2023-02-12T03:04:21;101618.66;;;-0.51;100.00
49122;BME280;35529;44.342;25.944;2023-02-12T03:06:56;101620.22;;;-0.48;100.00
49122;BME280;35529;44.342;25.944;2023-02-12T03:09:40;101627.09;;;-0.47;100.00
49122;BME280;35529;44.342;25.944;2023-02-12T03:12:16;101624.69;;;-0.50;100.00
49122;BME280;35529;44.342;25.944;2023-02-12T03:15:08;101631.13;;;-0.41;100.00
49122;BME280;35529;44.342;25.944;2023-02-12T03:17:42;101644.63;;;-0.35;100.00
49122;BME280;35529;44.342;25.944;2023-02-12T03:20:14;101645.91;;;-0.27;100.00
49122;BME280;35529;44.342;25.944;2023-02-12T03:22:44;101645.41;;;-0.20;100.00
49122;BME280;35529;44.342;25.944;2023-02-12T03:25:14;101652.31;;;-0.19;100.00
49122;BME280;35529;44.342;25.944;2023-02-12T03:27:42;101653.53;;;-0.24;100.00
49122;BME280;35529;44.342;25.944;2023-02-12T03:30:09;101652.59;;;-0.23;100.00
49122;BME280;35529;44.342;25.944;2023-02-12T03:32:45;101652.03;;;-0.28;100.00
49122;BME280;35529;44.342;25.944;2023-02-12T03:35:21;101662.53;;;-0.43;100.00
49122;BME280;35529;44.342;25.944;2023-02-12T03:38:01;101658.34;;;-0.45;100.00
49122;BME280;35529;44.342;25.944;2023-02-12T03:43:02;101659.00;;;-0.56;100.00
49122;BME280;35529;44.342;25.944;2023-02-12T03:51:09;101666.06;;;-0.58;100.00
49122;BME280;35529;44.342;25.944;2023-02-12T03:53:44;101661.00;;;-0.47;100.00
49122;BME280;35529;44.342;25.944;2023-02-12T03:56:14;101665.31;;;-0.46;100.00
49122;BME280;35529;44.342;25.944;2023-02-12T03:58:42;101671.28;;;-0.58;100.00
49122;BME280;35529;44.342;25.944;2023-02-12T04:01:10;101675.59;;;-0.72;100.00
49122;BME280;35529;44.342;25.944;2023-02-12T04:03:39;101670.56;;;-0.75;100.00
49122;BME280;35529;44.342;25.944;2023-02-12T04:06:21;101676.34;;;-0.70;100.00
49122;BME280;35529;44.342;25.944;2023-02-12T04:08:50;101677.53;;;-0.75;100.00
49122;BME280;35529;44.342;25.944;2023-02-12T04:11:22;101680.63;;;-0.83;100.00
49122;BME280;35529;44.342;25.944;2023-02-12T04:16:29;101677.91;;;-0.81;100.00
49122;BME280;35529;44.342;25.944;2023-02-12T04:18:57;101680.03;;;-0.74;100.00
49122;BME280;35529;44.342;25.944;2023-02-12T04:21:35;101690.00;;;-0.80;100.00
49122;BME280;35529;44.342;25.944;2023-02-12T04:29:34;101689.75;;;-0.76;100.00
49122;BME280;35529;44.342;25.944;2023-02-12T04:32:04;101684.22;;;-0.71;100.00
49122;BME280;35529;44.342;25.944;2023-02-12T04:37:03;101696.34;;;-0.85;100.00
49122;BME280;35529;44.342;25.944;2023-02-12T04:39:31;101696.06;;;-0.80;100.00
49122;BME280;35529;44.342;25.944;2023-02-12T04:41:59;101699.59;;;-0.81;100.00
49122;BME280;35529;44.342;25.944;2023-02-12T04:44:26;101703.34;;;-0.71;100.00
49122;BME280;35529;44.342;25.944;2023-02-12T04:46:54;101709.69;;;-0.75;100.00
49122;BME280;35529;44.342;25.944;2023-02-12T04:49:20;101705.84;;;-0.69;100.00
49122;BME280;35529;44.342;25.944;2023-02-12T04:51:47;101713.03;;;-0.58;100.00
49122;BME280;35529;44.342;25.944;2023-02-12T04:54:14;101713.97;;;-0.45;100.00
49122;BME280;35529;44.342;25.944;2023-02-12T04:56:41;101711.72;;;-0.37;100.00
49122;BME280;35529;44.342;25.944;2023-02-12T04:59:07;101718.41;;;-0.32;100.00
49122;BME280;35529;44.342;25.944;2023-02-12T05:01:34;101720.31;;;-0.49;100.00
49122;BME280;35529;44.342;25.944;2023-02-12T05:04:00;101728.31;;;-0.66;100.00
49122;BME280;35529;44.342;25.944;2023-02-12T05:06:27;101714.72;;;-0.57;100.00
49122;BME280;35529;44.342;25.944;2023-02-12T05:08:55;101719.94;;;-0.57;100.00
49122;BME280;35529;44.342;25.944;2023-02-12T05:11:21;101730.91;;;-0.66;100.00
49122;BME280;35529;44.342;25.944;2023-02-12T05:13:48;101732.03;;;-0.71;100.00
49122;BME280;35529;44.342;25.944;2023-02-12T05:16:15;101727.66;;;-0.70;100.00
49122;BME280;35529;44.342;25.944;2023-02-12T05:18:41;101730.25;;;-0.70;100.00
49122;BME280;35529;44.342;25.944;2023-02-12T05:21:07;101734.00;;;-0.60;100.00
49122;BME280;35529;44.342;25.944;2023-02-12T05:23:34;101747.78;;;-0.58;100.00
49122;BME280;35529;44.342;25.944;2023-02-12T05:26:02;101746.19;;;-0.75;100.00
49122;BME280;35529;44.342;25.944;2023-02-12T05:28:28;101749.91;;;-0.64;100.00
49122;BME280;35529;44.342;25.944;2023-02-12T05:30:58;101759.06;;;-0.43;100.00
49122;BME280;35529;44.342;25.944;2023-02-12T05:33:24;101764.56;;;-0.33;100.00
49122;BME280;35529;44.342;25.944;2023-02-12T05:35:50;101774.16;;;-0.34;100.00
49122;BME280;35529;44.342;25.944;2023-02-12T05:38:16;101782.53;;;-0.28;100.00
49122;BME280;35529;44.342;25.944;2023-02-12T05:40:42;101783.19;;;-0.54;100.00
49122;BME280;35529;44.342;25.944;2023-02-12T05:43:08;101789.59;;;-0.59;100.00
49122;BME280;35529;44.342;25.944;2023-02-12T05:45:34;101792.06;;;-0.56;100.00
49122;BME280;35529;44.342;25.944;2023-02-12T05:48:03;101794.81;;;-0.59;100.00
49122;BME280;35529;44.342;25.944;2023-02-12T05:50:29;101793.03;;;-0.73;100.00
49122;BME280;35529;44.342;25.944;2023-02-12T05:52:55;101794.78;;;-0.74;100.00
49122;BME280;35529;44.342;25.944;2023-02-12T05:55:21;101793.72;;;-0.70;100.00
49122;BME280;35529;44.342;25.944;2023-02-12T05:57:47;101793.59;;;-0.54;100.00
49122;BME280;35529;44.342;25.944;2023-02-12T06:00:13;101797.06;;;-0.53;100.00
49122;BME280;35529;44.342;25.944;2023-02-12T06:02:39;101805.63;;;-0.51;100.00
49122;BME280;35529;44.342;25.944;2023-02-12T06:05:08;101809.75;;;-0.32;100.00
49122;BME280;35529;44.342;25.944;2023-02-12T06:07:34;101809.19;;;-0.38;100.00
49122;BME280;35529;44.342;25.944;2023-02-12T06:10:02;101802.78;;;-0.32;100.00
49122;BME280;35529;44.342;25.944;2023-02-12T06:12:29;101804.66;;;-0.20;100.00
49122;BME280;35529;44.342;25.944;2023-02-12T06:14:55;101807.72;;;0.02;100.00
49122;BME280;35529;44.342;25.944;2023-02-12T06:17:23;101803.97;;;0.20;100.00
49122;BME280;35529;44.342;25.944;2023-02-12T06:19:52;101815.94;;;0.52;100.00
49122;BME280;35529;44.342;25.944;2023-02-12T06:22:18;101811.44;;;0.81;100.00
49122;BME280;35529;44.342;25.944;2023-02-12T06:24:44;101816.75;;;1.07;100.00
49122;BME280;35529;44.342;25.944;2023-02-12T06:27:10;101822.22;;;1.29;100.00
49122;BME280;35529;44.342;25.944;2023-02-12T06:29:36;101830.31;;;1.52;100.00
49122;BME280;35529;44.342;25.944;2023-02-12T06:32:02;101833.25;;;1.73;100.00
49122;BME280;35529;44.342;25.944;2023-02-12T06:34:28;101837.75;;;1.84;100.00
49122;BME280;35529;44.342;25.944;2023-02-12T06:36:54;101840.78;;;1.91;100.00
49122;BME280;35529;44.342;25.944;2023-02-12T06:39:20;101832.41;;;1.98;100.00
49122;BME280;35529;44.342;25.944;2023-02-12T06:41:46;101844.34;;;2.03;100.00
49122;BME280;35529;44.342;25.944;2023-02-12T06:44:13;101850.00;;;1.96;100.00
49122;BME280;35529;44.342;25.944;2023-02-12T06:46:39;101847.94;;;1.76;100.00
49122;BME280;35529;44.342;25.944;2023-02-12T06:49:05;101837.97;;;1.81;100.00
49122;BME280;35529;44.342;25.944;2023-02-12T06:51:31;101834.94;;;1.74;100.00
49122;BME280;35529;44.342;25.944;2023-02-12T06:53:57;101838.47;;;1.86;100.00
49122;BME280;35529;44.342;25.944;2023-02-12T06:56:24;101839.63;;;1.82;100.00
49122;BME280;35529;44.342;25.944;2023-02-12T06:58:52;101856.91;;;1.97;100.00
49122;BME280;35529;44.342;25.944;2023-02-12T07:01:20;101858.38;;;2.01;100.00
49122;BME280;35529;44.342;25.944;2023-02-12T07:03:48;101853.16;;;1.76;100.00
49122;BME280;35529;44.342;25.944;2023-02-12T07:06:14;101852.84;;;1.93;100.00
49122;BME280;35529;44.342;25.944;2023-02-12T07:08:40;101856.28;;;2.07;100.00
49122;BME280;35529;44.342;25.944;2023-02-12T07:11:06;101862.13;;;2.36;100.00
49122;BME280;35529;44.342;25.944;2023-02-12T07:13:33;101864.97;;;2.57;100.00
49122;BME280;35529;44.342;25.944;2023-02-12T07:16:05;101872.03;;;2.81;100.00
49122;BME280;35529;44.342;25.944;2023-02-12T07:18:34;101872.59;;;2.97;100.00
49122;BME280;35529;44.342;25.944;2023-02-12T07:21:00;101875.72;;;3.02;100.00
49122;BME280;35529;44.342;25.944;2023-02-12T07:23:27;101871.09;;;2.82;100.00
49122;BME280;35529;44.342;25.944;2023-02-12T07:25:56;101869.25;;;2.95;100.00
49122;BME280;35529;44.342;25.944;2023-02-12T07:28:23;101858.13;;;2.92;100.00
49122;BME280;35529;44.342;25.944;2023-02-12T07:30:49;101876.00;;;3.11;100.00
49122;BME280;35529;44.342;25.944;2023-02-12T07:33:17;101874.16;;;3.24;100.00
49122;BME280;35529;44.342;25.944;2023-02-12T07:35:44;101885.63;;;3.34;100.00
49122;BME280;35529;44.342;25.944;2023-02-12T07:38:10;101882.28;;;3.32;100.00
49122;BME280;35529;44.342;25.944;2023-02-12T07:40:36;101877.31;;;3.52;100.00
49122;BME280;35529;44.342;25.944;2023-02-12T07:43:02;101871.19;;;3.40;100.00
49122;BME280;35529;44.342;25.944;2023-02-12T07:45:28;101875.88;;;3.48;100.00
49122;BME280;35529;44.342;25.944;2023-02-12T07:47:55;101882.38;;;3.55;100.00
49122;BME280;35529;44.342;25.944;2023-02-12T07:50:21;101882.38;;;3.55;100.00
49122;BME280;35529;44.342;25.944;2023-02-12T07:52:47;101885.31;;;3.50;100.00
49122;BME280;35529;44.342;25.944;2023-02-12T07:55:16;101882.06;;;3.35;100.00
49122;BME280;35529;44.342;25.944;2023-02-12T07:57:42;101895.50;;;3.66;100.00
49122;BME280;35529;44.342;25.944;2023-02-12T08:00:08;101893.94;;;3.64;100.00
49122;BME280;35529;44.342;25.944;2023-02-12T08:02:35;101891.44;;;3.74;100.00
49122;BME280;35529;44.342;25.944;2023-02-12T08:05:01;101899.59;;;3.82;100.00
49122;BME280;35529;44.342;25.944;2023-02-12T08:07:27;101906.06;;;4.00;100.00
49122;BME280;35529;44.342;25.944;2023-02-12T08:09:54;101912.03;;;4.14;100.00
49122;BME280;35529;44.342;25.944;2023-02-12T08:12:20;101907.03;;;4.11;100.00
49122;BME280;35529;44.342;25.944;2023-02-12T08:14:46;101900.38;;;4.18;100.00
49122;BME280;35529;44.342;25.944;2023-02-12T08:17:12;101901.31;;;4.17;100.00
49122;BME280;35529;44.342;25.944;2023-02-12T08:19:41;101914.69;;;4.25;100.00
49122;BME280;35529;44.342;25.944;2023-02-12T08:22:09;101912.66;;;4.06;100.00
49122;BME280;35529;44.342;25.944;2023-02-12T08:24:38;101908.22;;;3.95;100.00
49122;BME280;35529;44.342;25.944;2023-02-12T08:27:04;101915.78;;;4.11;100.00
49122;BME280;35529;44.342;25.944;2023-02-12T08:29:33;101922.81;;;4.45;100.00
49122;BME280;35529;44.342;25.944;2023-02-12T08:32:02;101930.31;;;4.72;100.00
49122;BME280;35529;44.342;25.944;2023-02-12T08:34:29;101932.19;;;4.93;100.00
49122;BME280;35529;44.342;25.944;2023-02-12T08:36:56;101928.47;;;4.95;100.00
49122;BME280;35529;44.342;25.944;2023-02-12T08:39:24;101931.31;;;5.15;100.00
49122;BME280;35529;44.342;25.944;2023-02-12T08:41:50;101944.53;;;5.36;100.00
49122;BME280;35529;44.342;25.944;2023-02-12T08:44:17;101948.78;;;5.48;100.00
49122;BME280;35529;44.342;25.944;2023-02-12T08:46:44;101942.22;;;5.64;100.00
49122;BME280;35529;44.342;25.944;2023-02-12T08:49:14;101951.41;;;5.91;100.00
49122;BME280;35529;44.342;25.944;2023-02-12T08:51:42;101959.88;;;6.06;100.00
49122;BME280;35529;44.342;25.944;2023-02-12T08:54:12;101965.06;;;6.17;100.00
49122;BME280;35529;44.342;25.944;2023-02-12T08:56:39;101971.69;;;6.32;100.00
49122;BME280;35529;44.342;25.944;2023-02-12T08:59:06;101977.16;;;6.50;100.00
49122;BME280;35529;44.342;25.944;2023-02-12T09:01:33;101970.16;;;6.70;100.00
49122;BME280;35529;44.342;25.944;2023-02-12T09:04:00;101967.53;;;6.80;100.00
49122;BME280;35529;44.342;25.944;2023-02-12T09:06:26;101967.84;;;6.87;100.00
49122;BME280;35529;44.342;25.944;2023-02-12T09:08:55;101976.34;;;7.00;100.00
49122;BME280;35529;44.342;25.944;2023-02-12T09:11:24;101986.94;;;7.10;100.00
49122;BME280;35529;44.342;25.944;2023-02-12T09:13:58;101987.09;;;7.09;100.00
49122;BME280;35529;44.342;25.944;2023-02-12T09:16:27;102000.16;;;7.20;100.00
49122;BME280;35529;44.342;25.944;2023-02-12T09:18:54;101991.56;;;7.28;100.00
49122;BME280;35529;44.342;25.944;2023-02-12T09:21:20;101993.63;;;7.24;100.00
49122;BME280;35529;44.342;25.944;2023-02-12T09:23:46;101992.66;;;7.15;100.00
49122;BME280;35529;44.342;25.944;2023-02-12T09:26:14;102004.34;;;7.13;100.00
49122;BME280;35529;44.342;25.944;2023-02-12T09:28:40;102013.91;;;7.04;100.00
49122;BME280;35529;44.342;25.944;2023-02-12T09:31:13;102015.72;;;7.03;100.00
49122;BME280;35529;44.342;25.944;2023-02-12T09:33:40;102028.19;;;7.01;100.00
49122;BME280;35529;44.342;25.944;2023-02-12T09:36:08;102022.75;;;6.93;100.00
49122;BME280;35529;44.342;25.944;2023-02-12T09:38:37;102026.16;;;6.74;100.00
49122;BME280;35529;44.342;25.944;2023-02-12T09:49:02;102030.19;;;7.09;100.00
49122;BME280;35529;44.342;25.944;2023-02-12T09:51:32;102026.44;;;7.21;100.00
49122;BME280;35529;44.342;25.944;2023-02-12T09:54:00;102026.59;;;7.30;100.00
49122;BME280;35529;44.342;25.944;2023-02-12T09:56:27;102024.66;;;7.32;100.00
49122;BME280;35529;44.342;25.944;2023-02-12T09:58:56;102024.09;;;7.38;100.00
49122;BME280;35529;44.342;25.944;2023-02-12T10:01:25;102020.78;;;7.46;100.00
49122;BME280;35529;44.342;25.944;2023-02-12T10:03:52;102022.16;;;7.50;100.00
49122;BME280;35529;44.342;25.944;2023-02-12T10:06:20;102030.94;;;7.60;100.00
49122;BME280;35529;44.342;25.944;2023-02-12T10:13:57;102033.16;;;7.84;100.00
49122;BME280;35529;44.342;25.944;2023-02-12T10:19:18;102033.88;;;7.77;100.00
49122;BME280;35529;44.342;25.944;2023-02-12T10:27:08;102037.91;;;7.61;100.00
49122;BME280;35529;44.342;25.944;2023-02-12T10:29:36;102039.69;;;7.51;100.00
49122;BME280;35529;44.342;25.944;2023-02-12T10:32:08;102029.56;;;7.56;100.00
49122;BME280;35529;44.342;25.944;2023-02-12T10:34:36;102033.72;;;7.68;100.00
49122;BME280;35529;44.342;25.944;2023-02-12T10:39:49;102044.19;;;7.80;100.00
49122;BME280;35529;44.342;25.944;2023-02-12T10:42:18;102030.53;;;7.75;100.00
49122;BME280;35529;44.342;25.944;2023-02-12T10:44:46;102035.97;;;7.73;100.00
49122;BME280;35529;44.342;25.944;2023-02-12T10:47:14;102047.50;;;7.72;100.00
49122;BME280;35529;44.342;25.944;2023-02-12T10:49:43;102053.09;;;7.69;100.00
49122;BME280;35529;44.342;25.944;2023-02-12T10:52:11;102043.06;;;7.63;100.00
49122;BME280;35529;44.342;25.944;2023-02-12T10:59:45;102059.34;;;7.78;100.00
49122;BME280;35529;44.342;25.944;2023-02-12T11:02:19;102045.56;;;7.64;100.00
49122;BME280;35529;44.342;25.944;2023-02-12T11:04:45;102044.19;;;7.80;100.00
49122;BME280;35529;44.342;25.944;2023-02-12T11:07:12;102049.16;;;7.93;100.00
49122;BME280;35529;44.342;25.944;2023-02-12T11:09:39;102042.22;;;7.82;100.00
49122;BME280;35529;44.342;25.944;2023-02-12T11:12:17;102050.44;;;7.88;100.00
49122;BME280;35529;44.342;25.944;2023-02-12T11:14:54;102056.97;;;8.14;100.00
49122;BME280;35529;44.342;25.944;2023-02-12T11:17:24;102053.59;;;8.31;100.00
49122;BME280;35529;44.342;25.944;2023-02-12T11:20:01;102060.97;;;8.28;100.00
49122;BME280;35529;44.342;25.944;2023-02-12T11:22:28;102061.41;;;8.23;100.00
49122;BME280;35529;44.342;25.944;2023-02-12T11:24:59;102051.97;;;8.11;100.00
49122;BME280;35529;44.342;25.944;2023-02-12T11:27:26;102054.56;;;8.30;100.00
49122;BME280;35529;44.342;25.944;2023-02-12T11:30:10;102055.53;;;8.39;100.00
49122;BME280;35529;44.342;25.944;2023-02-12T11:32:37;102062.75;;;8.37;100.00
49122;BME280;35529;44.342;25.944;2023-02-12T11:35:14;102055.09;;;8.53;100.00
49122;BME280;35529;44.342;25.944;2023-02-12T11:37:44;102064.63;;;8.74;100.00
49122;BME280;35529;44.342;25.944;2023-02-12T11:40:27;102063.53;;;8.77;100.00
49122;BME280;35529;44.342;25.944;2023-02-12T11:43:01;102060.97;;;8.85;100.00
49122;BME280;35529;44.342;25.944;2023-02-12T11:45:32;102060.09;;;8.94;100.00
49122;BME280;35529;44.342;25.944;2023-02-12T11:47:59;102056.28;;;8.79;100.00
49122;BME280;35529;44.342;25.944;2023-02-12T11:50:30;102059.38;;;8.64;100.00
49122;BME280;35529;44.342;25.944;2023-02-12T11:52:57;102055.53;;;8.49;100.00
49122;BME280;35529;44.342;25.944;2023-02-12T11:55:32;102050.53;;;8.36;100.00
49122;BME280;35529;44.342;25.944;2023-02-12T11:58:03;102053.03;;;8.28;100.00
49122;BME280;35529;44.342;25.944;2023-02-12T12:00:37;102050.53;;;8.26;100.00
49122;BME280;35529;44.342;25.944;2023-02-12T12:05:43;102069.59;;;8.39;100.00
49122;BME280;35529;44.342;25.944;2023-02-12T12:08:12;102063.06;;;8.53;100.00
49122;BME280;35529;44.342;25.944;2023-02-12T12:10:47;102060.50;;;8.62;100.00
49122;BME280;35529;44.342;25.944;2023-02-12T12:13:20;102053.22;;;8.74;100.00
49122;BME280;35529;44.342;25.944;2023-02-12T12:15:58;102058.63;;;8.82;100.00
49122;BME280;35529;44.342;25.944;2023-02-12T12:18:45;102053.28;;;8.92;100.00
49122;BME280;35529;44.342;25.944;2023-02-12T12:21:40;102059.22;;;9.03;100.00
49122;BME280;35529;44.342;25.944;2023-02-12T12:24:18;102063.63;;;9.13;100.00
49122;BME280;35529;44.342;25.944;2023-02-12T12:26:46;102059.56;;;9.18;100.00
49122;BME280;35529;44.342;25.944;2023-02-12T12:31:43;102068.63;;;9.44;100.00
49122;BME280;35529;44.342;25.944;2023-02-12T12:34:14;102082.81;;;9.70;100.00
49122;BME280;35529;44.342;25.944;2023-02-12T12:42:11;102073.22;;;10.14;100.00
49122;BME280;35529;44.342;25.944;2023-02-12T12:49:49;102078.81;;;10.29;100.00
49122;BME280;35529;44.342;25.944;2023-02-12T12:57:58;102071.00;;;10.01;100.00
49122;BME280;35529;44.342;25.944;2023-02-12T13:08:28;102099.50;;;9.81;100.00
49122;BME280;35529;44.342;25.944;2023-02-12T13:13:37;102105.94;;;9.78;100.00
49122;BME280;35529;44.342;25.944;2023-02-12T13:16:22;102105.25;;;9.76;100.00
49122;BME280;35529;44.342;25.944;2023-02-12T13:26:53;102113.13;;;8.84;100.00
49122;BME280;35529;44.342;25.944;2023-02-12T13:31:53;102110.84;;;8.52;100.00
49122;BME280;35529;44.342;25.944;2023-02-12T13:34:20;102115.56;;;8.29;100.00
49122;BME280;35529;44.342;25.944;2023-02-12T13:36:48;102121.84;;;8.18;100.00
49122;BME280;35529;44.342;25.944;2023-02-12T13:39:21;102123.50;;;7.99;100.00
49122;BME280;35529;44.342;25.944;2023-02-12T13:41:57;102111.97;;;7.91;100.00
49122;BME280;35529;44.342;25.944;2023-02-12T13:44:30;102108.19;;;7.83;100.00
49122;BME280;35529;44.342;25.944;2023-02-12T13:49:50;102118.75;;;7.74;100.00
49122;BME280;35529;44.342;25.944;2023-02-12T13:57:36;102135.34;;;7.76;100.00
49122;BME280;35529;44.342;25.944;2023-02-12T14:00:02;102144.22;;;7.75;100.00
49122;BME280;35529;44.342;25.944;2023-02-12T14:05:04;102152.41;;;7.71;100.00
49122;BME280;35529;44.342;25.944;2023-02-12T14:07:58;102146.16;;;7.72;100.00
49122;BME280;35529;44.342;25.944;2023-02-12T14:10:27;102140.03;;;7.62;100.00
49122;BME280;35529;44.342;25.944;2023-02-12T14:12:55;102137.22;;;7.54;100.00
49122;BME280;35529;44.342;25.944;2023-02-12T14:15:30;102146.44;;;7.60;100.00
49122;BME280;35529;44.342;25.944;2023-02-12T14:20:36;102156.72;;;7.53;100.00
49122;BME280;35529;44.342;25.944;2023-02-12T14:23:25;102170.88;;;7.52;100.00
49122;BME280;35529;44.342;25.944;2023-02-12T14:28:28;102158.19;;;7.46;100.00
49122;BME280;35529;44.342;25.944;2023-02-12T14:33:43;102167.34;;;7.32;100.00
49122;BME280;35529;44.342;25.944;2023-02-12T14:41:25;102151.56;;;6.90;100.00
49122;BME280;35529;44.342;25.944;2023-02-12T14:46:56;102169.34;;;6.66;100.00
49122;BME280;35529;44.342;25.944;2023-02-12T14:59:58;102207.63;;;6.40;100.00
49122;BME280;35529;44.342;25.944;2023-02-12T15:02:29;102208.47;;;6.40;100.00
49122;BME280;35529;44.342;25.944;2023-02-12T15:05:04;102211.22;;;6.38;100.00
49122;BME280;35529;44.342;25.944;2023-02-12T15:07:35;102217.25;;;6.29;100.00
49122;BME280;35529;44.342;25.944;2023-02-12T15:10:13;102218.94;;;6.30;100.00
49122;BME280;35529;44.342;25.944;2023-02-12T15:12:44;102230.22;;;6.32;100.00